createdAt,value
2017-08-08T00:00:45.969Z,100592.98
2017-08-08T00:01:52.060Z,100588.97
2017-08-08T00:02:58.097Z,100590.84
2017-08-08T00:04:04.133Z,100593.20
2017-08-08T00:05:10.161Z,100587.23
2017-08-08T00:06:16.201Z,100580.24
2017-08-08T00:07:22.257Z,100579.23
2017-08-08T00:08:28.309Z,100576.94
2017-08-08T00:09:34.353Z,100575.23
2017-08-08T00:10:40.477Z,100572.67
2017-08-08T00:11:46.557Z,100573.28
2017-08-08T00:12:52.665Z,100570.59
2017-08-08T00:13:58.697Z,100574.48
2017-08-08T00:15:04.754Z,100572.19
2017-08-08T00:16:10.860Z,100572.14
2017-08-08T00:17:16.923Z,100568.82
2017-08-08T00:18:26.006Z,100567.13
2017-08-08T00:19:32.033Z,100567.22
2017-08-08T00:20:38.066Z,100562.00
2017-08-08T00:21:44.088Z,100565.59
2017-08-08T00:22:50.120Z,100559.34
2017-08-08T00:23:56.184Z,100562.89
2017-08-08T00:25:02.204Z,100563.27
2017-08-08T00:26:08.276Z,100562.42
2017-08-08T00:27:14.312Z,100561.48
2017-08-08T00:28:20.378Z,100549.04
2017-08-08T00:29:26.428Z,100552.23
2017-08-08T00:30:34.404Z,100552.33
2017-08-08T00:31:40.438Z,100548.36
2017-08-08T00:32:47.572Z,100549.91
2017-08-08T00:33:53.667Z,100551.64
2017-08-08T00:34:59.717Z,100546.26
2017-08-08T00:36:05.781Z,100548.02
2017-08-08T00:37:11.811Z,100545.03
2017-08-08T00:38:17.865Z,100546.28
2017-08-08T00:39:23.882Z,100544.58
2017-08-08T00:40:29.973Z,100547.45
2017-08-08T00:41:36.024Z,100539.34
2017-08-08T00:42:42.074Z,100542.21
2017-08-08T00:43:48.118Z,100543.94
2017-08-08T00:44:54.151Z,100546.28
2017-08-08T00:46:00.247Z,100545.44
2017-08-08T00:47:06.306Z,100542.37
2017-08-08T00:48:12.346Z,100542.57
2017-08-08T00:49:18.402Z,100537.56
2017-08-08T00:50:24.431Z,100542.84
2017-08-08T00:51:30.500Z,100540.70
2017-08-08T00:52:36.544Z,100537.12
2017-08-08T00:53:42.557Z,100539.84
2017-08-08T00:54:48.627Z,100540.31
2017-08-08T00:55:54.656Z,100534.75
2017-08-08T00:57:00.746Z,100537.64
2017-08-08T00:58:06.800Z,100535.12
2017-08-08T00:59:12.844Z,100538.16
2017-08-08T01:00:18.893Z,100537.52
2017-08-08T01:01:24.741Z,100534.08
2017-08-08T01:02:30.821Z,100532.20
2017-08-08T01:03:36.870Z,100533.81
2017-08-08T01:04:42.705Z,100534.25
2017-08-08T01:05:48.736Z,100537.27
2017-08-08T01:06:54.768Z,100541.50
2017-08-08T01:08:00.873Z,100532.69
2017-08-08T01:09:06.884Z,100534.92
2017-08-08T01:10:13.825Z,100532.28
2017-08-08T01:11:19.881Z,100531.32
2017-08-08T01:12:25.934Z,100536.73
2017-08-08T01:13:32.043Z,100530.39
2017-08-08T01:14:38.071Z,100536.20
2017-08-08T01:15:44.089Z,100530.16
2017-08-08T01:16:50.139Z,100520.67
2017-08-08T01:17:56.175Z,100526.56
2017-08-08T01:19:02.281Z,100520.78
2017-08-08T01:20:08.331Z,100524.59
2017-08-08T01:21:14.389Z,100519.33
2017-08-08T01:22:20.458Z,100524.66
2017-08-08T01:23:26.488Z,100521.74
2017-08-08T01:24:32.561Z,100521.37
2017-08-08T01:25:38.612Z,100518.56
2017-08-08T01:26:44.663Z,100524.00
2017-08-08T01:27:50.700Z,100520.50
2017-08-08T01:28:56.749Z,100528.45
2017-08-08T01:30:02.839Z,100532.11
2017-08-08T01:31:08.893Z,100530.83
2017-08-08T01:32:14.948Z,100532.31
2017-08-08T01:33:20.971Z,100537.41
2017-08-08T01:34:27.026Z,100538.77
2017-08-08T01:35:33.101Z,100532.08
2017-08-08T01:36:39.129Z,100532.70
2017-08-08T01:37:45.158Z,100527.21
2017-08-08T01:38:50.669Z,100532.03
2017-08-08T01:39:56.347Z,100528.81
2017-08-08T01:41:02.436Z,100530.41
2017-08-08T01:42:08.492Z,100529.94
2017-08-08T01:43:14.543Z,100535.89
2017-08-08T01:44:20.571Z,100529.63
2017-08-08T01:45:26.268Z,100528.73
2017-08-08T01:46:32.350Z,100528.92
2017-08-08T01:47:38.037Z,100524.80
2017-08-08T01:48:44.060Z,100531.45
2017-08-08T01:49:49.880Z,100526.59
2017-08-08T01:50:55.893Z,100529.34
2017-08-08T01:52:01.997Z,100524.64
2017-08-08T01:53:08.031Z,100527.95
2017-08-08T01:54:13.688Z,100522.38
2017-08-08T01:55:19.390Z,100519.15
2017-08-08T01:56:25.425Z,100520.17
2017-08-08T01:57:31.177Z,100522.77
2017-08-08T01:58:36.857Z,100526.41
2017-08-08T01:59:42.888Z,100513.28
2017-08-08T02:00:48.194Z,100515.45
2017-08-08T02:01:53.502Z,100513.86
2017-08-08T02:02:59.006Z,100517.33
2017-08-08T02:04:04.105Z,100521.14
2017-08-08T02:05:09.782Z,100515.14
2017-08-08T02:06:15.145Z,100513.81
2017-08-08T02:07:21.191Z,100514.75
2017-08-08T02:08:27.271Z,100508.09
2017-08-08T02:09:34.157Z,100504.91
2017-08-08T02:10:39.476Z,100507.36
2017-08-08T02:11:44.776Z,100500.41
2017-08-08T02:12:50.481Z,100500.44
2017-08-08T02:13:56.167Z,100501.61
2017-08-08T02:15:02.202Z,100496.05
2017-08-08T02:16:08.241Z,100496.66
2017-08-08T02:17:13.754Z,100498.47
2017-08-08T02:18:19.569Z,100496.98
2017-08-08T02:19:25.634Z,100494.81
2017-08-08T02:20:31.665Z,100493.44
2017-08-08T02:21:37.716Z,100494.91
2017-08-08T02:22:43.401Z,100484.66
2017-08-08T02:23:49.475Z,100485.05
2017-08-08T02:24:59.058Z,100484.58
2017-08-08T02:26:05.432Z,100483.63
2017-08-08T02:27:11.474Z,100482.38
2017-08-08T02:28:17.531Z,100485.76
2017-08-08T02:29:23.540Z,100481.80
2017-08-08T02:30:29.597Z,100480.98
2017-08-08T02:31:35.622Z,100475.60
2017-08-08T02:32:41.658Z,100478.88
2017-08-08T02:33:47.720Z,100481.25
2017-08-08T02:34:53.770Z,100478.36
2017-08-08T02:35:59.823Z,100480.07
2017-08-08T02:37:05.857Z,100482.05
2017-08-08T02:38:11.890Z,100482.86
2017-08-08T02:39:17.916Z,100490.11
2017-08-08T02:40:23.944Z,100488.20
2017-08-08T02:41:30.017Z,100488.41
2017-08-08T02:42:36.034Z,100489.47
2017-08-08T02:43:42.054Z,100486.02
2017-08-08T02:44:48.076Z,100493.53
2017-08-08T02:45:54.095Z,100492.38
2017-08-08T02:47:00.178Z,100488.19
2017-08-08T02:48:06.200Z,100488.36
2017-08-08T02:49:12.219Z,100488.56
2017-08-08T02:50:18.245Z,100490.03
2017-08-08T02:51:24.264Z,100482.14
2017-08-08T02:52:30.341Z,100484.08
2017-08-08T02:53:36.395Z,100483.63
2017-08-08T02:54:42.456Z,100479.64
2017-08-08T02:55:48.481Z,100481.19
2017-08-08T02:56:54.510Z,100484.30
2017-08-08T02:58:00.611Z,100487.41
2017-08-08T02:59:06.904Z,100486.08
2017-08-08T03:00:12.961Z,100479.92
2017-08-08T03:01:18.993Z,100482.28
2017-08-08T03:02:25.018Z,100481.14
2017-08-08T03:03:30.766Z,100484.28
2017-08-08T03:04:36.795Z,100484.59
2017-08-08T03:05:42.832Z,100478.03
2017-08-08T03:06:48.837Z,100475.25
2017-08-08T03:07:54.862Z,100471.45
2017-08-08T03:09:00.928Z,100468.83
2017-08-08T03:10:06.977Z,100473.22
2017-08-08T03:11:13.000Z,100473.73
2017-08-08T03:12:19.057Z,100472.67
2017-08-08T03:13:25.094Z,100477.59
2017-08-08T03:14:31.164Z,100476.66
2017-08-08T03:15:37.195Z,100477.28
2017-08-08T03:16:43.269Z,100475.23
2017-08-08T03:17:49.290Z,100470.45
2017-08-08T03:18:55.305Z,100474.97
2017-08-08T03:20:01.375Z,100478.54
2017-08-08T03:21:07.403Z,100483.28
2017-08-08T03:22:13.432Z,100486.65
2017-08-08T03:23:19.469Z,100482.35
2017-08-08T03:24:25.541Z,100481.17
2017-08-08T03:25:31.580Z,100477.20
2017-08-08T03:26:37.670Z,100477.18
2017-08-08T03:27:43.744Z,100471.05
2017-08-08T03:28:50.605Z,100463.61
2017-08-08T03:29:56.675Z,100463.41
2017-08-08T03:31:02.739Z,100465.80
2017-08-08T03:32:08.855Z,100464.05
2017-08-08T03:33:14.874Z,100463.94
2017-08-08T03:34:20.900Z,100457.75
2017-08-08T03:35:26.945Z,100461.01
2017-08-08T03:36:33.022Z,100459.11
2017-08-08T03:37:39.068Z,100468.56
2017-08-08T03:38:45.081Z,100467.59
2017-08-08T03:39:52.012Z,100461.70
2017-08-08T03:40:58.514Z,100465.27
2017-08-08T03:42:04.586Z,100464.35
2017-08-08T03:43:10.592Z,100460.03
2017-08-08T03:44:16.629Z,100457.69
2017-08-08T03:45:22.640Z,100467.72
2017-08-08T03:46:28.668Z,100459.22
2017-08-08T03:47:34.725Z,100465.48
2017-08-08T03:48:40.738Z,100461.81
2017-08-08T03:49:46.771Z,100466.84
2017-08-08T03:50:52.878Z,100463.92
2017-08-08T03:51:58.946Z,100468.48
2017-08-08T03:53:05.013Z,100465.06
2017-08-08T03:54:11.036Z,100466.84
2017-08-08T03:55:19.022Z,100468.81
2017-08-08T03:56:28.157Z,100466.63
2017-08-08T03:57:36.235Z,100469.76
2017-08-08T03:58:43.753Z,100464.59
2017-08-08T03:59:50.452Z,100468.09
2017-08-08T04:00:57.612Z,100462.78
2017-08-08T04:02:04.692Z,100463.33
2017-08-08T04:03:10.842Z,100466.69
2017-08-08T04:04:16.921Z,100467.66
2017-08-08T04:05:22.954Z,100469.36
2017-08-08T04:06:28.989Z,100464.91
2017-08-08T04:07:35.089Z,100466.83
2017-08-08T04:08:41.380Z,100463.59
2017-08-08T04:09:47.849Z,100461.73
2017-08-08T04:10:55.037Z,100465.11
2017-08-08T04:12:01.062Z,100461.70
2017-08-08T04:13:07.101Z,100463.61
2017-08-08T04:14:13.146Z,100464.80
2017-08-08T04:15:19.281Z,100468.80
2017-08-08T04:16:25.306Z,100456.92
2017-08-08T04:17:31.390Z,100453.87
2017-08-08T04:18:37.417Z,100460.69
2017-08-08T04:19:43.444Z,100451.09
2017-08-08T04:20:49.568Z,100455.20
2017-08-08T04:21:57.385Z,100453.29
2017-08-08T04:23:04.664Z,100450.00
2017-08-08T04:24:10.699Z,100448.45
2017-08-08T04:25:16.751Z,100442.25
2017-08-08T04:26:22.810Z,100442.01
2017-08-08T04:27:28.837Z,100435.23
2017-08-08T04:28:34.867Z,100437.53
2017-08-08T04:29:40.873Z,100433.80
2017-08-08T04:30:46.894Z,100434.38
2017-08-08T04:31:53.064Z,100433.66
2017-08-08T04:32:59.096Z,100431.52
2017-08-08T04:34:05.278Z,100434.18
2017-08-08T04:35:11.294Z,100428.30
2017-08-08T04:36:17.324Z,100425.23
2017-08-08T04:37:23.377Z,100430.25
2017-08-08T04:38:29.400Z,100420.37
2017-08-08T04:39:35.450Z,100420.62
2017-08-08T04:40:41.465Z,100410.59
2017-08-08T04:41:47.514Z,100410.75
2017-08-08T04:42:53.605Z,100409.16
2017-08-08T04:43:59.632Z,100409.62
2017-08-08T04:45:05.642Z,100409.50
2017-08-08T04:46:11.692Z,100406.70
2017-08-08T04:47:17.698Z,100406.03
2017-08-08T04:48:23.741Z,100401.07
2017-08-08T04:49:29.752Z,100402.65
2017-08-08T04:50:35.800Z,100404.91
2017-08-08T04:51:41.813Z,100404.60
2017-08-08T04:52:47.845Z,100402.20
2017-08-08T04:53:53.907Z,100401.41
2017-08-08T04:54:59.924Z,100396.58
2017-08-08T04:56:05.979Z,100397.86
2017-08-08T04:57:12.029Z,100398.92
2017-08-08T04:58:18.040Z,100396.83
2017-08-08T04:59:24.076Z,100399.92
2017-08-08T05:00:30.081Z,100390.97
2017-08-08T05:01:36.132Z,100386.62
2017-08-08T05:02:43.843Z,100394.47
2017-08-08T05:03:52.280Z,100383.34
2017-08-08T05:05:00.766Z,100382.97
2017-08-08T05:06:06.463Z,100382.33
2017-08-08T05:07:14.853Z,100381.66
2017-08-08T05:08:22.019Z,100383.94
2017-08-08T05:09:29.136Z,100381.24
2017-08-08T05:10:35.193Z,100379.63
2017-08-08T05:11:41.198Z,100373.37
2017-08-08T05:12:47.242Z,100373.73
2017-08-08T05:13:53.253Z,100374.45
2017-08-08T05:14:59.251Z,100370.09
2017-08-08T05:16:06.070Z,100371.66
2017-08-08T05:17:12.183Z,100367.64
2017-08-08T05:18:18.230Z,100369.91
2017-08-08T05:19:24.253Z,100369.53
2017-08-08T05:20:30.315Z,100372.08
2017-08-08T05:21:36.371Z,100375.11
2017-08-08T05:22:42.415Z,100371.14
2017-08-08T05:23:48.442Z,100374.81
2017-08-08T05:24:54.467Z,100376.64
2017-08-08T05:26:00.486Z,100376.21
2017-08-08T05:27:06.554Z,100378.44
2017-08-08T05:28:12.589Z,100385.14
2017-08-08T05:29:18.708Z,100383.58
2017-08-08T05:30:24.725Z,100392.82
2017-08-08T05:31:30.747Z,100386.50
2017-08-08T05:32:36.804Z,100387.09
2017-08-08T05:33:42.817Z,100384.31
2017-08-08T05:34:48.856Z,100385.27
2017-08-08T05:35:54.874Z,100389.66
2017-08-08T05:37:00.893Z,100390.94
2017-08-08T05:38:07.069Z,100390.31
2017-08-08T05:39:13.091Z,100382.20
2017-08-08T05:40:19.133Z,100384.94
2017-08-08T05:41:25.141Z,100380.66
2017-08-08T05:42:31.189Z,100377.11
2017-08-08T05:43:37.252Z,100375.63
2017-08-08T05:44:43.286Z,100374.54
2017-08-08T05:45:55.373Z,100371.19
2017-08-08T05:47:01.419Z,100372.08
2017-08-08T05:48:07.532Z,100376.11
2017-08-08T05:49:13.601Z,100374.08
2017-08-08T05:50:19.645Z,100368.84
2017-08-08T05:51:25.649Z,100373.17
2017-08-08T05:52:31.679Z,100370.27
2017-08-08T05:53:37.693Z,100371.40
2017-08-08T05:54:43.742Z,100362.87
2017-08-08T05:55:49.777Z,100354.84
2017-08-08T05:56:55.794Z,100354.61
2017-08-08T05:58:02.832Z,100352.98
2017-08-08T05:59:10.168Z,100349.25
2017-08-08T06:00:17.797Z,100346.95
2017-08-08T06:01:24.171Z,100340.14
2017-08-08T06:02:30.204Z,100335.05
2017-08-08T06:03:36.224Z,100330.53
2017-08-08T06:04:42.245Z,100329.25
2017-08-08T06:05:48.300Z,100319.28
2017-08-08T06:06:54.310Z,100320.88
2017-08-08T06:08:00.326Z,100320.59
2017-08-08T06:09:05.980Z,100316.08
2017-08-08T06:10:12.028Z,100321.39
2017-08-08T06:11:18.090Z,100322.16
2017-08-08T06:12:24.117Z,100316.84
2017-08-08T06:13:30.147Z,100317.61
2017-08-08T06:14:36.184Z,100318.17
2017-08-08T06:15:42.219Z,100324.82
2017-08-08T06:16:48.307Z,100324.76
2017-08-08T06:17:54.404Z,100327.31
2017-08-08T06:19:00.416Z,100325.37
2017-08-08T06:20:06.438Z,100326.41
2017-08-08T06:21:12.456Z,100321.06
2017-08-08T06:22:18.517Z,100325.85
2017-08-08T06:23:24.531Z,100320.34
2017-08-08T06:24:30.549Z,100316.60
2017-08-08T06:25:36.570Z,100314.45
2017-08-08T06:26:42.597Z,100312.77
2017-08-08T06:27:48.659Z,100302.38
2017-08-08T06:28:54.676Z,100296.63
2017-08-08T06:30:00.718Z,100295.10
2017-08-08T06:31:06.776Z,100300.03
2017-08-08T06:32:12.793Z,100290.64
2017-08-08T06:33:18.838Z,100292.08
2017-08-08T06:34:24.866Z,100291.49
2017-08-08T06:35:30.886Z,100293.99
2017-08-08T06:36:36.908Z,100291.48
2017-08-08T06:37:42.994Z,100293.09
2017-08-08T06:38:49.041Z,100289.75
2017-08-08T06:39:55.057Z,100294.34
2017-08-08T06:41:01.133Z,100298.51
2017-08-08T06:42:07.132Z,100297.08
2017-08-08T06:43:13.167Z,100293.48
2017-08-08T06:44:19.279Z,100292.52
2017-08-08T06:45:25.302Z,100292.35
2017-08-08T06:46:31.296Z,100289.83
2017-08-08T06:47:37.317Z,100289.32
2017-08-08T06:48:43.163Z,100287.73
2017-08-08T06:49:49.841Z,100283.20
2017-08-08T06:50:57.439Z,100286.40
2017-08-08T06:52:04.050Z,100285.46
2017-08-08T06:53:10.096Z,100288.36
2017-08-08T06:54:16.134Z,100285.75
2017-08-08T06:55:22.941Z,100284.50
2017-08-08T06:56:28.969Z,100286.10
2017-08-08T06:57:35.043Z,100280.42
2017-08-08T06:58:41.049Z,100282.83
2017-08-08T06:59:47.085Z,100283.15
2017-08-08T07:00:53.156Z,100282.38
2017-08-08T07:01:59.229Z,100273.07
2017-08-08T07:03:05.273Z,100282.61
2017-08-08T07:04:11.332Z,100277.28
2017-08-08T07:05:17.385Z,100269.66
2017-08-08T07:06:23.483Z,100272.25
2017-08-08T07:07:29.545Z,100271.83
2017-08-08T07:08:35.438Z,100268.73
2017-08-08T07:09:41.533Z,100265.17
2017-08-08T07:10:47.600Z,100266.23
2017-08-08T07:11:53.682Z,100264.07
2017-08-08T07:12:59.736Z,100261.41
2017-08-08T07:14:05.785Z,100257.84
2017-08-08T07:15:11.860Z,100248.81
2017-08-08T07:16:17.899Z,100253.05
2017-08-08T07:17:24.005Z,100250.54
2017-08-08T07:18:30.084Z,100245.06
2017-08-08T07:19:36.136Z,100242.56
2017-08-08T07:20:42.251Z,100237.05
2017-08-08T07:21:48.350Z,100239.64
2017-08-08T07:22:54.267Z,100239.94
2017-08-08T07:24:00.373Z,100233.17
2017-08-08T07:25:06.446Z,100228.05
2017-08-08T07:26:12.509Z,100228.03
2017-08-08T07:27:18.581Z,100217.44
2017-08-08T07:28:24.719Z,100226.03
2017-08-08T07:29:30.413Z,100218.59
2017-08-08T07:30:36.502Z,100220.53
2017-08-08T07:31:42.581Z,100223.13
2017-08-08T07:32:48.679Z,100222.73
2017-08-08T07:33:54.766Z,100217.58
2017-08-08T07:35:00.851Z,100217.59
2017-08-08T07:36:06.935Z,100210.27
2017-08-08T07:37:12.965Z,100212.73
2017-08-08T07:38:19.033Z,100209.66
2017-08-08T07:39:25.118Z,100210.42
2017-08-08T07:40:31.242Z,100205.97
2017-08-08T07:41:37.321Z,100205.75
2017-08-08T07:42:43.393Z,100202.25
2017-08-08T07:43:49.423Z,100208.83
2017-08-08T07:44:55.523Z,100188.53
2017-08-08T07:46:01.567Z,100200.07
2017-08-08T07:47:07.752Z,100190.67
2017-08-08T07:48:13.810Z,100191.53
2017-08-08T07:49:19.901Z,100181.08
2017-08-08T07:50:26.003Z,100188.33
2017-08-08T07:51:32.060Z,100183.61
2017-08-08T07:52:38.126Z,100181.40
2017-08-08T07:53:44.190Z,100183.25
2017-08-08T07:54:50.245Z,100178.88
2017-08-08T07:55:56.343Z,100184.03
2017-08-08T07:57:02.421Z,100178.27
2017-08-08T07:58:08.471Z,100169.33
2017-08-08T07:59:14.539Z,100161.24
2017-08-08T08:00:20.567Z,100159.02
2017-08-08T08:01:26.679Z,100162.12
2017-08-08T08:02:32.716Z,100161.41
2017-08-08T08:03:38.770Z,100162.48
2017-08-08T08:04:44.813Z,100164.05
2017-08-08T08:05:50.886Z,100166.44
2017-08-08T08:06:57.004Z,100162.23
2017-08-08T08:08:03.036Z,100148.39
2017-08-08T08:09:09.060Z,100148.81
2017-08-08T08:10:15.134Z,100153.69
2017-08-08T08:11:21.228Z,100152.95
2017-08-08T08:12:27.321Z,100157.30
2017-08-08T08:13:33.384Z,100155.43
2017-08-08T08:14:39.461Z,100157.50
2017-08-08T08:15:45.546Z,100160.11
2017-08-08T08:16:51.623Z,100154.37
2017-08-08T08:17:57.698Z,100162.62
2017-08-08T08:19:03.864Z,100162.31
2017-08-08T08:20:09.938Z,100163.89
2017-08-08T08:21:16.054Z,100155.70
2017-08-08T08:22:22.086Z,100155.25
2017-08-08T08:23:28.189Z,100162.59
2017-08-08T08:24:34.254Z,100165.65
2017-08-08T08:25:39.969Z,100161.19
2017-08-08T08:26:46.019Z,100162.22
2017-08-08T08:27:52.065Z,100157.50
2017-08-08T08:28:58.244Z,100158.84
2017-08-08T08:30:04.321Z,100164.05
2017-08-08T08:31:10.371Z,100163.45
2017-08-08T08:32:16.456Z,100163.73
2017-08-08T08:33:22.559Z,100160.32
2017-08-08T08:34:28.681Z,100155.00
2017-08-08T08:35:34.741Z,100155.27
2017-08-08T08:36:40.811Z,100164.09
2017-08-08T08:37:46.873Z,100154.99
2017-08-08T08:38:52.979Z,100160.10
2017-08-08T08:39:59.184Z,100155.41
2017-08-08T08:41:05.255Z,100162.03
2017-08-08T08:42:11.349Z,100159.73
2017-08-08T08:43:17.418Z,100163.14
2017-08-08T08:44:23.468Z,100162.70
2017-08-08T08:45:29.571Z,100154.91
2017-08-08T08:46:35.652Z,100152.00
2017-08-08T08:47:41.711Z,100153.88
2017-08-08T08:48:47.760Z,100153.02
2017-08-08T08:49:53.837Z,100153.42
2017-08-08T08:51:00.081Z,100148.44
2017-08-08T08:52:06.140Z,100146.61
2017-08-08T08:53:12.192Z,100149.75
2017-08-08T08:54:18.247Z,100147.75
2017-08-08T08:55:24.309Z,100147.38
2017-08-08T08:56:30.395Z,100141.52
2017-08-08T08:57:36.459Z,100141.31
2017-08-08T08:58:42.530Z,100140.93
2017-08-08T08:59:48.638Z,100135.55
2017-08-08T09:00:54.729Z,100141.56
2017-08-08T09:02:00.830Z,100128.82
2017-08-08T09:03:06.893Z,100128.89
2017-08-08T09:04:13.004Z,100126.98
2017-08-08T09:05:19.112Z,100134.58
2017-08-08T09:06:25.199Z,100129.31
2017-08-08T09:07:31.294Z,100123.63
2017-08-08T09:08:37.342Z,100128.70
2017-08-08T09:09:43.389Z,100133.77
2017-08-08T09:10:49.438Z,100118.97
2017-08-08T09:11:55.521Z,100120.03
2017-08-08T09:13:01.634Z,100117.87
2017-08-08T09:14:07.804Z,100116.89
2017-08-08T09:15:13.887Z,100105.69
2017-08-08T09:16:19.925Z,100111.71
2017-08-08T09:17:26.008Z,100103.67
2017-08-08T09:18:32.086Z,100100.61
2017-08-08T09:19:38.163Z,100090.77
2017-08-08T09:20:44.250Z,100090.56
2017-08-08T09:21:50.317Z,100091.30
2017-08-08T09:22:56.401Z,100089.32
2017-08-08T09:24:02.511Z,100080.19
2017-08-08T09:25:09.361Z,100080.99
2017-08-08T09:26:15.412Z,100077.17
2017-08-08T09:27:21.502Z,100079.94
2017-08-08T09:28:27.614Z,100082.39
2017-08-08T09:29:33.737Z,100080.97
2017-08-08T09:30:39.821Z,100079.69
2017-08-08T09:31:45.868Z,100082.56
2017-08-08T09:32:51.933Z,100080.83
2017-08-08T09:33:57.975Z,100078.27
2017-08-08T09:35:04.093Z,100083.34
2017-08-08T09:36:10.181Z,100085.06
2017-08-08T09:37:16.261Z,100086.83
2017-08-08T09:38:22.393Z,100084.67
2017-08-08T09:39:28.507Z,100082.29
2017-08-08T09:40:34.586Z,100073.24
2017-08-08T09:41:40.623Z,100079.93
2017-08-08T09:42:46.674Z,100080.63
2017-08-08T09:43:52.733Z,100079.56
2017-08-08T09:44:58.867Z,100077.88
2017-08-08T09:46:04.953Z,100092.36
2017-08-08T09:47:11.028Z,100085.13
2017-08-08T09:48:17.098Z,100076.10
2017-08-08T09:49:23.170Z,100075.20
2017-08-08T09:50:29.285Z,100075.30
2017-08-08T09:51:35.379Z,100068.39
2017-08-08T09:52:41.476Z,100074.48
2017-08-08T09:53:47.523Z,100074.13
2017-08-08T09:54:53.614Z,100065.00
2017-08-08T09:55:59.814Z,100071.81
2017-08-08T09:57:05.922Z,100071.11
2017-08-08T09:58:11.824Z,100066.22
2017-08-08T09:59:17.878Z,100062.74
2017-08-08T10:00:23.934Z,100048.34
2017-08-08T10:01:29.838Z,100060.98
2017-08-08T10:02:35.992Z,100051.34
2017-08-08T10:03:42.070Z,100058.36
2017-08-08T10:04:48.151Z,100054.80
2017-08-08T10:05:54.200Z,100046.40
2017-08-08T10:07:00.370Z,100046.53
2017-08-08T10:08:06.484Z,100051.92
2017-08-08T10:09:12.563Z,100050.47
2017-08-08T10:10:18.673Z,100051.41
2017-08-08T10:11:24.756Z,100048.81
2017-08-08T10:12:30.809Z,100044.61
2017-08-08T10:13:36.925Z,100050.77
2017-08-08T10:14:43.015Z,100043.47
2017-08-08T10:15:49.107Z,100042.83
2017-08-08T10:16:55.220Z,100051.00
2017-08-08T10:18:01.289Z,100049.25
2017-08-08T10:19:07.474Z,100038.82
2017-08-08T10:20:13.545Z,100042.88
2017-08-08T10:21:19.635Z,100043.51
2017-08-08T10:22:25.701Z,100047.05
2017-08-08T10:23:31.786Z,100047.97
2017-08-08T10:24:37.913Z,100041.85
2017-08-08T10:25:44.054Z,100049.66
2017-08-08T10:26:50.167Z,100042.25
2017-08-08T10:27:56.293Z,100043.44
2017-08-08T10:29:02.383Z,100039.91
2017-08-08T10:30:08.512Z,100035.40
2017-08-08T10:31:14.626Z,100040.17
2017-08-08T10:32:20.717Z,100036.13
2017-08-08T10:33:26.836Z,100034.89
2017-08-08T10:34:32.983Z,100027.83
2017-08-08T10:35:39.119Z,100017.23
2017-08-08T10:36:45.192Z,100017.23
2017-08-08T10:37:51.385Z,100014.36
2017-08-08T10:38:57.568Z,100011.86
2017-08-08T10:40:03.326Z,100016.61
2017-08-08T10:41:09.531Z,100017.31
2017-08-08T10:42:15.715Z,100018.34
2017-08-08T10:43:21.917Z,100001.03
2017-08-08T10:44:27.998Z,100003.22
2017-08-08T10:45:34.135Z,100003.39
2017-08-08T10:46:40.311Z,100001.80
2017-08-08T10:47:46.462Z,100005.27
2017-08-08T10:48:52.557Z,99998.38
2017-08-08T10:49:58.692Z,100007.39
2017-08-08T10:51:04.813Z,100008.20
2017-08-08T10:52:10.965Z,100006.27
2017-08-08T10:53:17.042Z,100008.84
2017-08-08T10:54:23.206Z,100014.20
2017-08-08T10:55:29.277Z,100008.46
2017-08-08T10:56:35.353Z,100009.54
2017-08-08T10:57:41.500Z,100014.50
2017-08-08T10:58:47.563Z,100009.16
2017-08-08T10:59:53.676Z,100014.56
2017-08-08T11:00:59.830Z,100008.89
2017-08-08T11:02:05.881Z,99998.98
2017-08-08T11:03:12.017Z,100004.28
2017-08-08T11:04:18.058Z,99997.34
2017-08-08T11:05:24.138Z,100004.05
2017-08-08T11:06:30.185Z,100002.38
2017-08-08T11:07:36.267Z,99999.45
2017-08-08T11:08:42.395Z,99997.62
2017-08-08T11:09:48.496Z,100003.23
2017-08-08T11:10:54.604Z,100007.57
2017-08-08T11:12:00.678Z,100003.28
2017-08-08T11:13:06.758Z,100008.94
2017-08-08T11:14:12.907Z,100004.77
2017-08-08T11:15:19.157Z,100007.58
2017-08-08T11:16:25.261Z,100003.14
2017-08-08T11:17:31.389Z,100004.46
2017-08-08T11:18:37.479Z,100008.50
2017-08-08T11:19:47.493Z,99999.42
2017-08-08T11:20:53.573Z,100003.75
2017-08-08T11:21:59.774Z,100001.83
2017-08-08T11:23:05.972Z,99998.09
2017-08-08T11:24:12.071Z,99998.62
2017-08-08T11:27:00.509Z,100001.45
2017-08-08T11:28:06.544Z,99997.63
2017-08-08T11:29:12.583Z,99999.23
2017-08-08T11:30:31.415Z,100003.53
2017-08-08T11:31:37.500Z,100010.61
2017-08-08T11:32:43.567Z,100003.52
2017-08-08T11:33:49.731Z,99998.22
2017-08-08T11:34:55.750Z,99996.89
2017-08-08T11:36:01.949Z,100004.36
2017-08-08T11:37:08.051Z,99994.87
2017-08-08T11:38:14.111Z,99995.28
2017-08-08T11:39:20.152Z,99994.22
2017-08-08T11:40:26.209Z,99986.56
2017-08-08T11:41:32.293Z,99988.47
2017-08-08T11:42:38.347Z,99988.45
2017-08-08T11:43:44.415Z,99979.72
2017-08-08T11:44:50.465Z,99987.91
2017-08-08T11:45:56.503Z,99985.31
2017-08-08T11:47:02.577Z,99981.89
2017-08-08T11:48:08.613Z,99981.20
2017-08-08T11:49:14.641Z,99976.23
2017-08-08T11:50:20.390Z,99973.24
2017-08-08T11:51:26.425Z,99962.33
2017-08-08T11:52:32.508Z,99963.61
2017-08-08T11:53:38.544Z,99951.56
2017-08-08T11:54:44.313Z,99949.75
2017-08-08T11:55:50.371Z,99954.13
2017-08-08T11:58:39.006Z,99954.25
2017-08-08T11:59:44.781Z,99954.59
2017-08-08T12:00:50.838Z,99949.97
2017-08-08T12:01:56.560Z,99940.16
2017-08-08T12:03:02.601Z,99946.13
2017-08-08T12:04:08.381Z,99948.41
2017-08-08T12:05:14.131Z,99946.11
2017-08-08T12:06:19.901Z,99939.90
2017-08-08T12:07:25.641Z,99949.66
2017-08-08T12:08:31.689Z,99945.88
2017-08-08T12:09:37.731Z,99951.98
2017-08-08T12:10:43.481Z,99950.59
2017-08-08T12:11:49.583Z,99954.56
2017-08-08T12:12:55.338Z,99955.07
2017-08-08T12:14:01.398Z,99948.32
2017-08-08T12:15:11.395Z,99948.75
2017-08-08T12:16:17.452Z,99942.34
2017-08-08T12:17:23.206Z,99949.16
2017-08-08T12:18:28.621Z,99947.94
2017-08-08T12:19:34.399Z,99940.48
2017-08-08T12:20:40.206Z,99941.20
2017-08-08T12:21:45.970Z,99938.38
2017-08-08T12:22:51.719Z,99927.77
2017-08-08T12:23:57.469Z,99925.75
2017-08-08T12:25:03.480Z,99932.94
2017-08-08T12:26:09.329Z,99935.93
2017-08-08T12:27:15.364Z,99939.27
2017-08-08T12:28:21.412Z,99935.31
2017-08-08T12:29:27.471Z,99931.43
2017-08-08T12:30:33.249Z,99937.75
2017-08-08T12:31:39.333Z,99935.77
2017-08-08T12:32:45.729Z,99934.57
2017-08-08T12:33:51.791Z,99938.80
2017-08-08T12:34:57.566Z,99939.19
2017-08-08T12:36:02.945Z,99946.22
2017-08-08T12:37:08.806Z,99945.25
2017-08-08T12:38:14.565Z,99938.55
2017-08-08T12:39:20.315Z,99941.28
2017-08-08T12:40:26.112Z,99933.88